sensor_id;sensor_type;location;lat;lon;timestamp;P1;durP1;ratioP1;P2;durP2;ratioP2
11139;SDS011;5624;49.388;11.350;2023-01-01T00:01:44;48.97;;;40.43;;
11139;SDS011;5624;49.388;11.350;2023-01-01T00:04:11;50.07;;;40.67;;
11139;SDS011;5624;49.388;11.350;2023-01-01T00:06:38;51.43;;;41.87;;
11139;SDS011;5624;49.388;11.350;2023-01-01T00:09:03;42.90;;;35.97;;
11139;SDS011;5624;49.388;11.350;2023-01-01T00:11:48;42.50;;;33.23;;
11139;SDS011;5624;49.388;11.350;2023-01-01T00:14:13;29.47;;;26.07;;
11139;SDS011;5624;49.388;11.350;2023-01-01T00:16:39;32.00;;;24.90;;
11139;SDS011;5624;49.388;11.350;2023-01-01T00:19:04;29.33;;;22.30;;
11139;SDS011;5624;49.388;11.350;2023-01-01T00:21:30;29.10;;;21.83;;
11139;SDS011;5624;49.388;11.350;2023-01-01T00:23:56;23.50;;;19.33;;
11139;SDS011;5624;49.388;11.350;2023-01-01T00:26:21;27.10;;;19.77;;
11139;SDS011;5624;49.388;11.350;2023-01-01T00:28:47;23.93;;;19.20;;
11139;SDS011;5624;49.388;11.350;2023-01-01T00:31:13;23.83;;;17.43;;
11139;SDS011;5624;49.388;11.350;2023-01-01T00:33:41;25.60;;;18.80;;
11139;SDS011;5624;49.388;11.350;2023-01-01T00:38:43;16.63;;;12.67;;
11139;SDS011;5624;49.388;11.350;2023-01-01T00:41:10;11.70;;;9.33;;
11139;SDS011;5624;49.388;11.350;2023-01-01T00:43:37;13.13;;;9.70;;
11139;SDS011;5624;49.388;11.350;2023-01-01T00:46:03;11.30;;;8.83;;
11139;SDS011;5624;49.388;11.350;2023-01-01T00:48:30;12.70;;;9.57;;
11139;SDS011;5624;49.388;11.350;2023-01-01T00:50:56;13.63;;;10.73;;
11139;SDS011;5624;49.388;11.350;2023-01-01T00:53:22;11.50;;;8.63;;
11139;SDS011;5624;49.388;11.350;2023-01-01T00:55:48;10.03;;;7.37;;
11139;SDS011;5624;49.388;11.350;2023-01-01T00:58:15;10.03;;;7.70;;
11139;SDS011;5624;49.388;11.350;2023-01-01T01:00:41;10.93;;;8.00;;
11139;SDS011;5624;49.388;11.350;2023-01-01T01:03:09;10.13;;;7.63;;
11139;SDS011;5624;49.388;11.350;2023-01-01T01:05:37;8.80;;;7.53;;
11139;SDS011;5624;49.388;11.350;2023-01-01T01:08:02;10.13;;;7.07;;
11139;SDS011;5624;49.388;11.350;2023-01-01T01:10:28;11.07;;;8.23;;
11139;SDS011;5624;49.388;11.350;2023-01-01T01:12:54;11.90;;;8.70;;
11139;SDS011;5624;49.388;11.350;2023-01-01T01:15:20;11.97;;;9.07;;
11139;SDS011;5624;49.388;11.350;2023-01-01T01:17:45;10.50;;;8.97;;
11139;SDS011;5624;49.388;11.350;2023-01-01T01:20:11;10.27;;;8.23;;
11139;SDS011;5624;49.388;11.350;2023-01-01T01:22:37;9.47;;;7.33;;
11139;SDS011;5624;49.388;11.350;2023-01-01T01:25:03;8.80;;;6.70;;
11139;SDS011;5624;49.388;11.350;2023-01-01T01:27:29;7.27;;;5.80;;
11139;SDS011;5624;49.388;11.350;2023-01-01T01:29:55;9.13;;;5.57;;
11139;SDS011;5624;49.388;11.350;2023-01-01T01:32:21;9.77;;;5.40;;
11139;SDS011;5624;49.388;11.350;2023-01-01T01:34:47;7.63;;;5.70;;
11139;SDS011;5624;49.388;11.350;2023-01-01T01:37:13;7.80;;;6.03;;
11139;SDS011;5624;49.388;11.350;2023-01-01T01:39:39;8.03;;;6.60;;
11139;SDS011;5624;49.388;11.350;2023-01-01T01:42:05;10.17;;;6.73;;
11139;SDS011;5624;49.388;11.350;2023-01-01T01:44:47;9.60;;;7.13;;
11139;SDS011;5624;49.388;11.350;2023-01-01T01:49:51;8.67;;;5.80;;
11139;SDS011;5624;49.388;11.350;2023-01-01T01:52:32;7.40;;;5.87;;
11139;SDS011;5624;49.388;11.350;2023-01-01T01:55:00;8.83;;;5.83;;
11139;SDS011;5624;49.388;11.350;2023-01-01T01:57:29;8.70;;;6.43;;
11139;SDS011;5624;49.388;11.350;2023-01-01T01:59:56;8.73;;;6.30;;
11139;SDS011;5624;49.388;11.350;2023-01-01T02:02:28;8.50;;;6.50;;
11139;SDS011;5624;49.388;11.350;2023-01-01T02:04:59;8.03;;;6.13;;
11139;SDS011;5624;49.388;11.350;2023-01-01T02:07:25;8.27;;;6.10;;
11139;SDS011;5624;49.388;11.350;2023-01-01T02:09:54;6.87;;;5.27;;
11139;SDS011;5624;49.388;11.350;2023-01-01T02:12:20;9.50;;;6.27;;
11139;SDS011;5624;49.388;11.350;2023-01-01T02:14:45;8.43;;;5.70;;
11139;SDS011;5624;49.388;11.350;2023-01-01T02:17:14;9.43;;;6.47;;
11139;SDS011;5624;49.388;11.350;2023-01-01T02:31:38;7.93;;;5.67;;
11139;SDS011;5624;49.388;11.350;2023-01-01T02:34:08;7.93;;;5.67;;
11139;SDS011;5624;49.388;11.350;2023-01-01T02:36:39;6.87;;;5.50;;
11139;SDS011;5624;49.388;11.350;2023-01-01T02:39:12;7.80;;;5.30;;
11139;SDS011;5624;49.388;11.350;2023-01-01T02:41:40;7.07;;;5.03;;
11139;SDS011;5624;49.388;11.350;2023-01-01T02:44:09;6.87;;;5.37;;
11139;SDS011;5624;49.388;11.350;2023-01-01T02:46:35;7.60;;;5.07;;
11139;SDS011;5624;49.388;11.350;2023-01-01T02:49:02;6.47;;;4.60;;
11139;SDS011;5624;49.388;11.350;2023-01-01T02:54:37;6.40;;;4.20;;
11139;SDS011;5624;49.388;11.350;2023-01-01T03:00:00;5.13;;;3.67;;
11139;SDS011;5624;49.388;11.350;2023-01-01T03:08:54;5.47;;;4.30;;
11139;SDS011;5624;49.388;11.350;2023-01-01T03:11:22;6.67;;;4.30;;
11139;SDS011;5624;49.388;11.350;2023-01-01T03:14:07;5.23;;;3.97;;
11139;SDS011;5624;49.388;11.350;2023-01-01T03:19:11;6.00;;;3.93;;
11139;SDS011;5624;49.388;11.350;2023-01-01T03:24:16;6.33;;;3.80;;
11139;SDS011;5624;49.388;11.350;2023-01-01T03:26:52;4.47;;;3.73;;
11139;SDS011;5624;49.388;11.350;2023-01-01T03:29:22;6.10;;;3.80;;
11139;SDS011;5624;49.388;11.350;2023-01-01T03:31:52;6.47;;;3.80;;
11139;SDS011;5624;49.388;11.350;2023-01-01T03:34:22;5.17;;;4.00;;
11139;SDS011;5624;49.388;11.350;2023-01-01T03:36:55;5.67;;;3.93;;
11139;SDS011;5624;49.388;11.350;2023-01-01T03:39:30;7.20;;;3.73;;
11139;SDS011;5624;49.388;11.350;2023-01-01T03:45:06;7.63;;;4.10;;
11139;SDS011;5624;49.388;11.350;2023-01-01T03:47:37;7.43;;;4.23;;
11139;SDS011;5624;49.388;11.350;2023-01-01T03:50:03;5.33;;;4.07;;
11139;SDS011;5624;49.388;11.350;2023-01-01T03:52:35;6.03;;;4.20;;
11139;SDS011;5624;49.388;11.350;2023-01-01T04:00:36;8.20;;;4.10;;
11139;SDS011;5624;49.388;11.350;2023-01-01T04:03:24;5.10;;;3.63;;
11139;SDS011;5624;49.388;11.350;2023-01-01T04:05:53;7.67;;;3.70;;
11139;SDS011;5624;49.388;11.350;2023-01-01T04:08:18;4.63;;;3.37;;
11139;SDS011;5624;49.388;11.350;2023-01-01T04:10:46;6.00;;;4.10;;
11139;SDS011;5624;49.388;11.350;2023-01-01T04:13:15;5.80;;;3.90;;
11139;SDS011;5624;49.388;11.350;2023-01-01T04:15:41;5.03;;;3.60;;
11139;SDS011;5624;49.388;11.350;2023-01-01T04:18:06;5.17;;;3.67;;
11139;SDS011;5624;49.388;11.350;2023-01-01T04:20:33;5.47;;;3.47;;
11139;SDS011;5624;49.388;11.350;2023-01-01T04:22:58;6.33;;;3.80;;
11139;SDS011;5624;49.388;11.350;2023-01-01T04:25:25;6.67;;;4.23;;
11139;SDS011;5624;49.388;11.350;2023-01-01T04:27:51;5.57;;;3.57;;
11139;SDS011;5624;49.388;11.350;2023-01-01T04:30:17;6.53;;;3.90;;
11139;SDS011;5624;49.388;11.350;2023-01-01T04:32:43;6.67;;;4.00;;
11139;SDS011;5624;49.388;11.350;2023-01-01T04:35:13;7.23;;;3.73;;
11139;SDS011;5624;49.388;11.350;2023-01-01T04:37:39;7.20;;;3.93;;
11139;SDS011;5624;49.388;11.350;2023-01-01T04:40:07;7.17;;;3.80;;
11139;SDS011;5624;49.388;11.350;2023-01-01T04:42:33;5.00;;;3.60;;
11139;SDS011;5624;49.388;11.350;2023-01-01T04:44:59;5.80;;;3.73;;
11139;SDS011;5624;49.388;11.350;2023-01-01T04:47:24;6.97;;;4.43;;
11139;SDS011;5624;49.388;11.350;2023-01-01T04:49:53;4.90;;;3.67;;
11139;SDS011;5624;49.388;11.350;2023-01-01T04:52:19;6.70;;;3.77;;
11139;SDS011;5624;49.388;11.350;2023-01-01T04:54:45;6.43;;;4.20;;
11139;SDS011;5624;49.388;11.350;2023-01-01T04:57:10;6.97;;;4.47;;
11139;SDS011;5624;49.388;11.350;2023-01-01T04:59:36;6.37;;;3.93;;
11139;SDS011;5624;49.388;11.350;2023-01-01T05:02:02;7.57;;;4.33;;
11139;SDS011;5624;49.388;11.350;2023-01-01T05:04:27;6.30;;;4.40;;
11139;SDS011;5624;49.388;11.350;2023-01-01T05:06:53;6.33;;;4.00;;
11139;SDS011;5624;49.388;11.350;2023-01-01T05:09:19;7.50;;;4.57;;
11139;SDS011;5624;49.388;11.350;2023-01-01T05:11:45;6.43;;;4.27;;
11139;SDS011;5624;49.388;11.350;2023-01-01T05:14:10;6.40;;;4.10;;
11139;SDS011;5624;49.388;11.350;2023-01-01T05:16:37;5.07;;;4.07;;
11139;SDS011;5624;49.388;11.350;2023-01-01T05:19:03;6.30;;;4.53;;
11139;SDS011;5624;49.388;11.350;2023-01-01T05:21:31;6.53;;;4.83;;
11139;SDS011;5624;49.388;11.350;2023-01-01T05:23:59;5.90;;;4.33;;
11139;SDS011;5624;49.388;11.350;2023-01-01T05:26:27;7.83;;;4.57;;
11139;SDS011;5624;49.388;11.350;2023-01-01T05:28:54;8.50;;;4.87;;
11139;SDS011;5624;49.388;11.350;2023-01-01T05:31:21;5.60;;;4.20;;
11139;SDS011;5624;49.388;11.350;2023-01-01T05:33:49;7.30;;;4.53;;
11139;SDS011;5624;49.388;11.350;2023-01-01T05:36:16;6.67;;;4.97;;
11139;SDS011;5624;49.388;11.350;2023-01-01T05:38:43;7.97;;;4.50;;
11139;SDS011;5624;49.388;11.350;2023-01-01T05:41:11;6.97;;;4.83;;
11139;SDS011;5624;49.388;11.350;2023-01-01T05:43:38;7.97;;;4.97;;
11139;SDS011;5624;49.388;11.350;2023-01-01T05:46:04;8.03;;;4.90;;
11139;SDS011;5624;49.388;11.350;2023-01-01T05:48:32;7.53;;;5.07;;
11139;SDS011;5624;49.388;11.350;2023-01-01T05:51:03;7.10;;;5.10;;
11139;SDS011;5624;49.388;11.350;2023-01-01T05:53:31;10.73;;;6.10;;
11139;SDS011;5624;49.388;11.350;2023-01-01T05:55:57;10.67;;;5.50;;
11139;SDS011;5624;49.388;11.350;2023-01-01T05:58:23;8.07;;;5.53;;
11139;SDS011;5624;49.388;11.350;2023-01-01T06:00:49;8.27;;;5.53;;
11139;SDS011;5624;49.388;11.350;2023-01-01T06:03:15;9.53;;;5.43;;
11139;SDS011;5624;49.388;11.350;2023-01-01T06:05:40;10.43;;;5.40;;
11139;SDS011;5624;49.388;11.350;2023-01-01T06:08:06;11.63;;;5.03;;
11139;SDS011;5624;49.388;11.350;2023-01-01T06:10:31;8.00;;;5.37;;
11139;SDS011;5624;49.388;11.350;2023-01-01T06:12:57;7.13;;;4.90;;
11139;SDS011;5624;49.388;11.350;2023-01-01T06:15:23;8.47;;;5.27;;
11139;SDS011;5624;49.388;11.350;2023-01-01T06:17:49;8.00;;;5.50;;
11139;SDS011;5624;49.388;11.350;2023-01-01T06:20:15;7.67;;;5.27;;
11139;SDS011;5624;49.388;11.350;2023-01-01T06:22:40;9.00;;;5.43;;
11139;SDS011;5624;49.388;11.350;2023-01-01T06:25:06;9.47;;;5.67;;
11139;SDS011;5624;49.388;11.350;2023-01-01T06:27:33;8.60;;;5.77;;
11139;SDS011;5624;49.388;11.350;2023-01-01T06:29:59;8.80;;;5.57;;
11139;SDS011;5624;49.388;11.350;2023-01-01T06:32:25;7.67;;;5.23;;
11139;SDS011;5624;49.388;11.350;2023-01-01T06:34:51;11.07;;;5.93;;
11139;SDS011;5624;49.388;11.350;2023-01-01T06:37:16;6.73;;;4.97;;
11139;SDS011;5624;49.388;11.350;2023-01-01T06:39:42;10.07;;;5.17;;
11139;SDS011;5624;49.388;11.350;2023-01-01T06:42:07;8.60;;;5.63;;
11139;SDS011;5624;49.388;11.350;2023-01-01T06:44:33;7.43;;;5.33;;
11139;SDS011;5624;49.388;11.350;2023-01-01T06:46:58;8.10;;;5.53;;
11139;SDS011;5624;49.388;11.350;2023-01-01T06:49:24;7.67;;;4.60;;
11139;SDS011;5624;49.388;11.350;2023-01-01T06:51:50;8.20;;;5.87;;
11139;SDS011;5624;49.388;11.350;2023-01-01T06:54:15;6.33;;;4.53;;
11139;SDS011;5624;49.388;11.350;2023-01-01T06:56:41;7.63;;;5.47;;
11139;SDS011;5624;49.388;11.350;2023-01-01T06:59:06;9.13;;;5.27;;
11139;SDS011;5624;49.388;11.350;2023-01-01T07:01:32;9.17;;;6.23;;
11139;SDS011;5624;49.388;11.350;2023-01-01T07:04:04;9.40;;;5.87;;
11139;SDS011;5624;49.388;11.350;2023-01-01T07:06:32;9.03;;;6.63;;
11139;SDS011;5624;49.388;11.350;2023-01-01T07:08:59;7.80;;;5.90;;
11139;SDS011;5624;49.388;11.350;2023-01-01T07:11:24;8.17;;;5.70;;
11139;SDS011;5624;49.388;11.350;2023-01-01T07:13:50;8.17;;;6.00;;
11139;SDS011;5624;49.388;11.350;2023-01-01T07:16:16;9.30;;;5.67;;
11139;SDS011;5624;49.388;11.350;2023-01-01T07:18:42;9.77;;;6.40;;
11139;SDS011;5624;49.388;11.350;2023-01-01T07:21:27;8.93;;;5.97;;
11139;SDS011;5624;49.388;11.350;2023-01-01T07:23:56;8.67;;;5.37;;
11139;SDS011;5624;49.388;11.350;2023-01-01T07:26:23;8.10;;;5.77;;
11139;SDS011;5624;49.388;11.350;2023-01-01T07:28:49;9.97;;;5.80;;
11139;SDS011;5624;49.388;11.350;2023-01-01T07:31:15;7.70;;;5.67;;
11139;SDS011;5624;49.388;11.350;2023-01-01T07:33:41;10.27;;;5.27;;
11139;SDS011;5624;49.388;11.350;2023-01-01T07:36:06;7.77;;;5.33;;
11139;SDS011;5624;49.388;11.350;2023-01-01T07:38:32;9.50;;;5.97;;
11139;SDS011;5624;49.388;11.350;2023-01-01T07:40:58;8.40;;;5.37;;
11139;SDS011;5624;49.388;11.350;2023-01-01T07:43:24;8.70;;;5.40;;
11139;SDS011;5624;49.388;11.350;2023-01-01T07:45:49;8.90;;;6.33;;
11139;SDS011;5624;49.388;11.350;2023-01-01T07:48:15;7.80;;;4.83;;
11139;SDS011;5624;49.388;11.350;2023-01-01T07:50:41;7.47;;;5.23;;
11139;SDS011;5624;49.388;11.350;2023-01-01T07:53:07;7.10;;;4.70;;
11139;SDS011;5624;49.388;11.350;2023-01-01T07:55:33;9.43;;;5.57;;
11139;SDS011;5624;49.388;11.350;2023-01-01T07:57:59;13.70;;;5.70;;
11139;SDS011;5624;49.388;11.350;2023-01-01T08:00:24;8.73;;;5.43;;
11139;SDS011;5624;49.388;11.350;2023-01-01T08:02:50;9.83;;;5.40;;
11139;SDS011;5624;49.388;11.350;2023-01-01T08:05:16;8.60;;;4.57;;
11139;SDS011;5624;49.388;11.350;2023-01-01T08:07:46;7.47;;;5.53;;
11139;SDS011;5624;49.388;11.350;2023-01-01T08:10:12;7.93;;;5.13;;
11139;SDS011;5624;49.388;11.350;2023-01-01T08:12:38;8.60;;;5.63;;
11139;SDS011;5624;49.388;11.350;2023-01-01T08:15:04;9.53;;;5.17;;
11139;SDS011;5624;49.388;11.350;2023-01-01T08:17:30;9.03;;;5.30;;
11139;SDS011;5624;49.388;11.350;2023-01-01T08:19:56;9.33;;;4.80;;
11139;SDS011;5624;49.388;11.350;2023-01-01T08:22:21;6.83;;;5.20;;
11139;SDS011;5624;49.388;11.350;2023-01-01T08:24:47;8.53;;;5.83;;
11139;SDS011;5624;49.388;11.350;2023-01-01T08:27:13;8.60;;;5.07;;
11139;SDS011;5624;49.388;11.350;2023-01-01T08:29:40;6.53;;;4.57;;
11139;SDS011;5624;49.388;11.350;2023-01-01T08:32:06;10.07;;;5.10;;
11139;SDS011;5624;49.388;11.350;2023-01-01T08:34:32;7.03;;;4.60;;
11139;SDS011;5624;49.388;11.350;2023-01-01T08:36:58;8.30;;;4.47;;
11139;SDS011;5624;49.388;11.350;2023-01-01T08:39:24;7.97;;;4.37;;
11139;SDS011;5624;49.388;11.350;2023-01-01T08:41:49;7.67;;;4.03;;
11139;SDS011;5624;49.388;11.350;2023-01-01T08:44:15;5.77;;;4.30;;
11139;SDS011;5624;49.388;11.350;2023-01-01T08:46:41;7.20;;;3.83;;
11139;SDS011;5624;49.388;11.350;2023-01-01T08:49:07;8.90;;;4.07;;
11139;SDS011;5624;49.388;11.350;2023-01-01T08:51:33;4.57;;;3.00;;
11139;SDS011;5624;49.388;11.350;2023-01-01T08:53:58;5.27;;;3.13;;
11139;SDS011;5624;49.388;11.350;2023-01-01T08:56:24;5.50;;;3.77;;
11139;SDS011;5624;49.388;11.350;2023-01-01T08:58:49;6.03;;;3.77;;
11139;SDS011;5624;49.388;11.350;2023-01-01T09:01:15;5.67;;;3.63;;
11139;SDS011;5624;49.388;11.350;2023-01-01T09:03:41;4.20;;;3.10;;
11139;SDS011;5624;49.388;11.350;2023-01-01T09:06:06;5.20;;;3.23;;
11139;SDS011;5624;49.388;11.350;2023-01-01T09:08:32;5.35;;;3.33;;
11139;SDS011;5624;49.388;11.350;2023-01-01T09:11:01;5.13;;;3.30;;
11139;SDS011;5624;49.388;11.350;2023-01-01T09:13:28;6.75;;;3.30;;
11139;SDS011;5624;49.388;11.350;2023-01-01T09:15:54;5.18;;;3.03;;
11139;SDS011;5624;49.388;11.350;2023-01-01T09:18:20;5.90;;;3.13;;
11139;SDS011;5624;49.388;11.350;2023-01-01T09:20:46;6.28;;;3.40;;
11139;SDS011;5624;49.388;11.350;2023-01-01T09:23:11;3.83;;;3.17;;
11139;SDS011;5624;49.388;11.350;2023-01-01T09:25:37;7.10;;;3.30;;
11139;SDS011;5624;49.388;11.350;2023-01-01T09:28:04;7.50;;;3.25;;
11139;SDS011;5624;49.388;11.350;2023-01-01T09:30:31;5.13;;;2.90;;
11139;SDS011;5624;49.388;11.350;2023-01-01T09:32:58;5.80;;;3.30;;
11139;SDS011;5624;49.388;11.350;2023-01-01T09:35:23;5.35;;;3.03;;
11139;SDS011;5624;49.388;11.350;2023-01-01T09:37:49;5.45;;;2.80;;
11139;SDS011;5624;49.388;11.350;2023-01-01T09:46:04;5.50;;;3.08;;
11139;SDS011;5624;49.388;11.350;2023-01-01T09:48:33;4.57;;;2.95;;
11139;SDS011;5624;49.388;11.350;2023-01-01T09:51:04;5.80;;;3.25;;
11139;SDS011;5624;49.388;11.350;2023-01-01T09:56:25;5.70;;;3.13;;
11139;SDS011;5624;49.388;11.350;2023-01-01T09:58:51;4.20;;;3.00;;
11139;SDS011;5624;49.388;11.350;2023-01-01T10:10:32;7.30;;;3.20;;
11139;SDS011;5624;49.388;11.350;2023-01-01T10:12:47;4.15;;;2.50;;
11139;SDS011;5624;49.388;11.350;2023-01-01T10:15:32;4.90;;;2.80;;
11139;SDS011;5624;49.388;11.350;2023-01-01T10:18:07;4.70;;;3.10;;
11139;SDS011;5624;49.388;11.350;2023-01-01T10:20:45;5.10;;;2.88;;
11139;SDS011;5624;49.388;11.350;2023-01-01T10:23:41;6.82;;;3.40;;
11139;SDS011;5624;49.388;11.350;2023-01-01T10:26:20;5.13;;;2.97;;
11139;SDS011;5624;49.388;11.350;2023-01-01T10:29:00;4.53;;;3.08;;
11139;SDS011;5624;49.388;11.350;2023-01-01T10:31:48;5.72;;;2.72;;
11139;SDS011;5624;49.388;11.350;2023-01-01T10:34:24;5.68;;;2.90;;
11139;SDS011;5624;49.388;11.350;2023-01-01T10:36:56;6.78;;;3.20;;
11139;SDS011;5624;49.388;11.350;2023-01-01T10:39:23;5.50;;;3.00;;
11139;SDS011;5624;49.388;11.350;2023-01-01T10:41:50;5.28;;;3.05;;
11139;SDS011;5624;49.388;11.350;2023-01-01T10:44:21;5.00;;;2.80;;
11139;SDS011;5624;49.388;11.350;2023-01-01T10:46:55;6.10;;;2.97;;
11139;SDS011;5624;49.388;11.350;2023-01-01T10:49:22;5.45;;;2.80;;
11139;SDS011;5624;49.388;11.350;2023-01-01T10:51:51;5.07;;;2.53;;
11139;SDS011;5624;49.388;11.350;2023-01-01T10:56:52;5.93;;;3.05;;
11139;SDS011;5624;49.388;11.350;2023-01-01T10:59:34;6.72;;;3.03;;
11139;SDS011;5624;49.388;11.350;2023-01-01T11:04:50;5.55;;;2.75;;
11139;SDS011;5624;49.388;11.350;2023-01-01T11:07:34;4.82;;;3.05;;
11139;SDS011;5624;49.388;11.350;2023-01-01T11:10:02;6.25;;;3.28;;
11139;SDS011;5624;49.388;11.350;2023-01-01T11:12:32;5.45;;;2.90;;
11139;SDS011;5624;49.388;11.350;2023-01-01T11:15:00;6.68;;;3.03;;
11139;SDS011;5624;49.388;11.350;2023-01-01T11:17:29;7.57;;;3.00;;
11139;SDS011;5624;49.388;11.350;2023-01-01T11:19:58;4.18;;;2.53;;
11139;SDS011;5624;49.388;11.350;2023-01-01T11:25:17;5.85;;;3.15;;
11139;SDS011;5624;49.388;11.350;2023-01-01T11:27:43;4.35;;;2.67;;
11139;SDS011;5624;49.388;11.350;2023-01-01T11:30:19;5.07;;;2.80;;
11139;SDS011;5624;49.388;11.350;2023-01-01T11:32:49;5.07;;;2.63;;
11139;SDS011;5624;49.388;11.350;2023-01-01T11:35:22;6.05;;;3.13;;
11139;SDS011;5624;49.388;11.350;2023-01-01T11:37:50;6.13;;;2.88;;
11139;SDS011;5624;49.388;11.350;2023-01-01T11:43:03;7.07;;;3.00;;
11139;SDS011;5624;49.388;11.350;2023-01-01T11:45:39;6.63;;;3.00;;
11139;SDS011;5624;49.388;11.350;2023-01-01T11:48:16;7.07;;;2.92;;
11139;SDS011;5624;49.388;11.350;2023-01-01T11:50:53;4.38;;;2.70;;
11139;SDS011;5624;49.388;11.350;2023-01-01T11:55:59;6.55;;;3.17;;
11139;SDS011;5624;49.388;11.350;2023-01-01T12:01:24;4.55;;;2.72;;
11139;SDS011;5624;49.388;11.350;2023-01-01T12:04:16;4.30;;;2.67;;
11139;SDS011;5624;49.388;11.350;2023-01-01T12:06:48;5.30;;;3.67;;
11139;SDS011;5624;49.388;11.350;2023-01-01T12:09:23;6.40;;;3.13;;
11139;SDS011;5624;49.388;11.350;2023-01-01T12:13:05;5.20;;;3.40;;
11139;SDS011;5624;49.388;11.350;2023-01-01T12:15:15;6.25;;;3.47;;
11139;SDS011;5624;49.388;11.350;2023-01-01T12:17:48;6.70;;;3.22;;
11139;SDS011;5624;49.388;11.350;2023-01-01T12:20:27;5.70;;;2.95;;
11139;SDS011;5624;49.388;11.350;2023-01-01T12:22:56;4.22;;;2.30;;
11139;SDS011;5624;49.388;11.350;2023-01-01T12:25:23;5.03;;;3.00;;
11139;SDS011;5624;49.388;11.350;2023-01-01T12:34:03;4.30;;;2.67;;
11139;SDS011;5624;49.388;11.350;2023-01-01T12:52:59;6.30;;;3.28;;
11139;SDS011;5624;49.388;11.350;2023-01-01T12:58:20;5.32;;;3.30;;
11139;SDS011;5624;49.388;11.350;2023-01-01T13:01:00;5.90;;;3.25;;
11139;SDS011;5624;49.388;11.350;2023-01-01T13:03:33;6.13;;;3.10;;
11139;SDS011;5624;49.388;11.350;2023-01-01T13:06:03;9.00;;;3.58;;
11139;SDS011;5624;49.388;11.350;2023-01-01T13:08:30;6.05;;;3.58;;
11139;SDS011;5624;49.388;11.350;2023-01-01T13:10:59;5.32;;;3.35;;
11139;SDS011;5624;49.388;11.350;2023-01-01T13:13:26;7.15;;;3.50;;
11139;SDS011;5624;49.388;11.350;2023-01-01T13:15:52;8.25;;;3.63;;
11139;SDS011;5624;49.388;11.350;2023-01-01T13:18:21;6.28;;;3.80;;
11139;SDS011;5624;49.388;11.350;2023-01-01T13:20:54;10.98;;;7.38;;
11139;SDS011;5624;49.388;11.350;2023-01-01T13:28:44;7.53;;;4.18;;
11139;SDS011;5624;49.388;11.350;2023-01-01T13:45:13;9.70;;;3.80;;
11139;SDS011;5624;49.388;11.350;2023-01-01T13:57:03;9.13;;;3.90;;
11139;SDS011;5624;49.388;11.350;2023-01-01T14:00:04;5.78;;;3.80;;
11139;SDS011;5624;49.388;11.350;2023-01-01T14:02:53;5.95;;;3.50;;
11139;SDS011;5624;49.388;11.350;2023-01-01T14:05:49;6.50;;;3.92;;
11139;SDS011;5624;49.388;11.350;2023-01-01T14:10:54;6.60;;;4.35;;
11139;SDS011;5624;49.388;11.350;2023-01-01T14:13:19;6.82;;;3.83;;
11139;SDS011;5624;49.388;11.350;2023-01-01T14:15:55;7.13;;;4.28;;
11139;SDS011;5624;49.388;11.350;2023-01-01T14:18:31;8.52;;;3.55;;
11139;SDS011;5624;49.388;11.350;2023-01-01T14:21:00;5.68;;;3.35;;
11139;SDS011;5624;49.388;11.350;2023-01-01T14:23:33;4.95;;;3.33;;
11139;SDS011;5624;49.388;11.350;2023-01-01T14:26:02;6.70;;;3.33;;
11139;SDS011;5624;49.388;11.350;2023-01-01T14:28:32;7.80;;;3.60;;
11139;SDS011;5624;49.388;11.350;2023-01-01T14:31:00;5.68;;;3.70;;
11139;SDS011;5624;49.388;11.350;2023-01-01T14:33:31;6.38;;;3.13;;
11139;SDS011;5624;49.388;11.350;2023-01-01T14:35:59;8.82;;;3.70;;
11139;SDS011;5624;49.388;11.350;2023-01-01T14:43:37;6.18;;;3.30;;
11139;SDS011;5624;49.388;11.350;2023-01-01T14:46:05;6.28;;;3.17;;
11139;SDS011;5624;49.388;11.350;2023-01-01T14:48:32;6.75;;;3.42;;
11139;SDS011;5624;49.388;11.350;2023-01-01T14:50:59;8.65;;;4.05;;
11139;SDS011;5624;49.388;11.350;2023-01-01T14:53:29;8.00;;;4.72;;
11139;SDS011;5624;49.388;11.350;2023-01-01T14:55:58;6.15;;;4.45;;
11139;SDS011;5624;49.388;11.350;2023-01-01T14:58:24;10.77;;;8.07;;
11139;SDS011;5624;49.388;11.350;2023-01-01T15:00:53;12.98;;;6.90;;
11139;SDS011;5624;49.388;11.350;2023-01-01T15:03:36;6.82;;;4.38;;
11139;SDS011;5624;49.388;11.350;2023-01-01T15:06:02;6.30;;;4.40;;
11139;SDS011;5624;49.388;11.350;2023-01-01T15:08:31;7.40;;;4.50;;
11139;SDS011;5624;49.388;11.350;2023-01-01T15:10:56;6.75;;;4.07;;
11139;SDS011;5624;49.388;11.350;2023-01-01T15:13:26;5.13;;;4.38;;
11139;SDS011;5624;49.388;11.350;2023-01-01T15:15:52;5.78;;;4.15;;
11139;SDS011;5624;49.388;11.350;2023-01-01T15:23:50;9.57;;;4.50;;
11139;SDS011;5624;49.388;11.350;2023-01-01T15:26:26;7.07;;;4.28;;
11139;SDS011;5624;49.388;11.350;2023-01-01T15:28:54;13.50;;;4.40;;
11139;SDS011;5624;49.388;11.350;2023-01-01T15:31:22;7.93;;;4.13;;
11139;SDS011;5624;49.388;11.350;2023-01-01T15:33:57;6.50;;;3.60;;
11139;SDS011;5624;49.388;11.350;2023-01-01T15:36:23;8.17;;;4.70;;
11139;SDS011;5624;49.388;11.350;2023-01-01T15:38:49;10.03;;;5.77;;
11139;SDS011;5624;49.388;11.350;2023-01-01T15:46:49;9.63;;;5.60;;
11139;SDS011;5624;49.388;11.350;2023-01-01T15:49:27;9.83;;;5.50;;
11139;SDS011;5624;49.388;11.350;2023-01-01T15:51:57;7.93;;;4.73;;
11139;SDS011;5624;49.388;11.350;2023-01-01T15:54:26;8.53;;;4.90;;
11139;SDS011;5624;49.388;11.350;2023-01-01T15:56:52;8.03;;;3.93;;
11139;SDS011;5624;49.388;11.350;2023-01-01T16:01:49;7.53;;;4.40;;
11139;SDS011;5624;49.388;11.350;2023-01-01T16:04:16;8.90;;;5.30;;
11139;SDS011;5624;49.388;11.350;2023-01-01T16:06:46;9.83;;;4.87;;
11139;SDS011;5624;49.388;11.350;2023-01-01T16:09:14;9.10;;;5.53;;
11139;SDS011;5624;49.388;11.350;2023-01-01T16:11:41;11.17;;;6.80;;
11139;SDS011;5624;49.388;11.350;2023-01-01T16:14:07;10.60;;;6.80;;
11139;SDS011;5624;49.388;11.350;2023-01-01T16:16:33;9.47;;;6.00;;
11139;SDS011;5624;49.388;11.350;2023-01-01T16:19:00;12.37;;;6.50;;
11139;SDS011;5624;49.388;11.350;2023-01-01T16:21:26;8.63;;;5.50;;
11139;SDS011;5624;49.388;11.350;2023-01-01T16:23:54;11.20;;;5.37;;
11139;SDS011;5624;49.388;11.350;2023-01-01T16:26:20;8.73;;;4.87;;
11139;SDS011;5624;49.388;11.350;2023-01-01T16:28:46;8.73;;;4.93;;
11139;SDS011;5624;49.388;11.350;2023-01-01T16:31:16;9.57;;;4.97;;
11139;SDS011;5624;49.388;11.350;2023-01-01T16:33:51;7.30;;;4.67;;
11139;SDS011;5624;49.388;11.350;2023-01-01T16:36:19;7.40;;;4.90;;
11139;SDS011;5624;49.388;11.350;2023-01-01T16:38:45;9.07;;;4.67;;
11139;SDS011;5624;49.388;11.350;2023-01-01T16:41:12;13.93;;;5.27;;
11139;SDS011;5624;49.388;11.350;2023-01-01T16:43:38;8.87;;;4.93;;
11139;SDS011;5624;49.388;11.350;2023-01-01T16:46:04;11.97;;;5.20;;
11139;SDS011;5624;49.388;11.350;2023-01-01T16:48:30;9.17;;;5.03;;
11139;SDS011;5624;49.388;11.350;2023-01-01T16:50:55;10.13;;;5.40;;
11139;SDS011;5624;49.388;11.350;2023-01-01T16:53:21;9.27;;;6.27;;
11139;SDS011;5624;49.388;11.350;2023-01-01T16:55:52;10.00;;;6.17;;
11139;SDS011;5624;49.388;11.350;2023-01-01T16:58:18;12.07;;;6.30;;
11139;SDS011;5624;49.388;11.350;2023-01-01T17:00:45;9.43;;;5.67;;
11139;SDS011;5624;49.388;11.350;2023-01-01T17:03:11;8.97;;;5.47;;
11139;SDS011;5624;49.388;11.350;2023-01-01T17:05:37;11.30;;;5.67;;
11139;SDS011;5624;49.388;11.350;2023-01-01T17:08:03;10.50;;;6.00;;
11139;SDS011;5624;49.388;11.350;2023-01-01T17:10:29;9.77;;;5.77;;
11139;SDS011;5624;49.388;11.350;2023-01-01T17:12:55;20.03;;;11.30;;
11139;SDS011;5624;49.388;11.350;2023-01-01T17:15:26;20.47;;;15.60;;
11139;SDS011;5624;49.388;11.350;2023-01-01T17:17:52;9.70;;;6.23;;
11139;SDS011;5624;49.388;11.350;2023-01-01T17:20:18;8.00;;;5.07;;
11139;SDS011;5624;49.388;11.350;2023-01-01T17:22:44;8.70;;;5.40;;
11139;SDS011;5624;49.388;11.350;2023-01-01T17:25:09;8.57;;;5.17;;
11139;SDS011;5624;49.388;11.350;2023-01-01T17:27:35;10.00;;;6.10;;